Time;durP1;ratioP1;P1;durP2;ratioP2;P2;SDS_P1;SDS_P2;PMS_P1;PMS_P2;Temp;Humidity;BMP_temperature;BMP_pressure;BME280_temperature;BME280_humidity;BME280_pressure;Samples;Min_cycle;Max_cycle;Signal;HPM_P1;HPM_P2
2022/03/11 00:01:01;;;;;;;;;;;3.40;66.50;;;;;;5171232;28;19929;-81
2022/03/11 00:03:34;;;;;;;;;;;3.70;66.50;;;;;;5168514;28;19928;-82
2022/03/11 00:06:06;;;;;;;;;;;4.90;66.80;;;;;;5172024;28;19948;-84
2022/03/11 00:08:38;;;;;;;;;;;3.20;66.10;;;;;;5175197;28;20643;-81
2022/03/11 00:11:11;;;;;;;;;;;4.90;66.30;;;;;;5170250;28;19925;-84
2022/03/11 00:13:43;;;;;;;;;;;4.40;66.10;;;;;;5145160;28;19925;-83
2022/03/11 00:16:16;;;;;;;;;;;4.90;66.80;;;;;;5174470;28;19929;-83
2022/03/11 00:18:50;;;;;;;;;;;3.20;65.70;;;;;;5164437;28;20005;-83
2022/03/11 00:21:22;;;;;;;;;;;3.20;65.20;;;;;;5178328;28;19947;-83
2022/03/11 00:23:55;;;;;;;;;;;3.10;64.50;;;;;;5176173;28;19932;-84
2022/03/11 00:26:27;;;;;;;;;;;3.10;65.40;;;;;;5161518;28;20274;-83
2022/03/11 00:29:00;;;;;;;;;;;3.10;65.00;;;;;;5174101;28;19921;-83
2022/03/11 00:31:33;;;;;;;;;;;2.90;64.80;;;;;;5177096;28;19926;-84
2022/03/11 00:34:05;;;;;;;;;;;2.90;63.00;;;;;;5175318;28;20457;-84
2022/03/11 00:36:38;;;;;;;;;;;3.70;64.80;;;;;;5174379;28;19929;-82
2022/03/11 00:39:11;;;;;;;;;;;2.80;63.10;;;;;;5168823;28;19932;-84
2022/03/11 00:41:43;;;;;;;;;;;2.80;63.90;;;;;;5154014;28;19926;-84
2022/03/11 00:44:16;;;;;;;;;;;2.80;63.90;;;;;;5156218;28;21840;-83
2022/03/11 00:46:48;;;;;;;;;;;2.70;63.50;;;;;;5152365;28;19936;-83
2022/03/11 00:49:21;;;;;;;;;;;2.70;63.90;;;;;;5137544;28;19973;-83
2022/03/11 00:51:53;;;;;;;;;;;2.60;64.80;;;;;;5155431;28;19924;-83
2022/03/11 00:54:26;;;;;;;;;;;3.10;64.00;;;;;;5155437;28;21225;-84
2022/03/11 00:56:58;;;;;;;;;;;3.60;64.50;;;;;;5154674;28;20529;-83
2022/03/11 00:59:30;;;;;;;;;;;2.60;64.20;;;;;;5138069;28;19956;-84
2022/03/11 01:02:03;;;;;;;;;;;6.40;65.50;;;;;;5149547;28;20506;-83
2022/03/11 01:04:35;;;;;;;;;;;2.60;64.20;;;;;;5162011;28;20588;-83
2022/03/11 01:07:08;;;;;;;;;;;2.40;64.10;;;;;;5132937;28;19932;-84
2022/03/11 01:09:40;;;;;;;;;;;3.40;63.50;;;;;;5158806;28;19929;-83
2022/03/11 01:12:12;;;;;;;;;;;2.40;63.90;;;;;;5141495;28;19925;-83
2022/03/11 01:14:45;;;;;;;;;;;2.20;62.30;;;;;;5156490;28;19928;-84
2022/03/11 01:17:17;;;;;;;;;;;2.20;63.40;;;;;;5160523;28;20336;-84
2022/03/11 01:19:49;;;;;;;;;;;2.30;63.20;;;;;;5136150;28;19932;-83
2022/03/11 01:22:22;;;;;;;;;;;2.10;62.60;;;;;;5159967;28;19932;-84
2022/03/11 01:24:54;;;;;;;;;;;2.10;63.10;;;;;;5155590;28;19925;-84
2022/03/11 01:27:30;;;;;;;;;;;2.10;62.40;;;;;;5145294;28;19933;-83
2022/03/11 01:30:04;;;;;;;;;;;2.10;62.40;;;;;;5158556;28;20045;-83
2022/03/11 01:32:36;;;;;;;;;;;2.00;61.70;;;;;;5164910;28;19929;-83
2022/03/11 01:35:09;;;;;;;;;;;2.00;62.70;;;;;;5176742;28;19932;-84
2022/03/11 01:37:45;;;;;;;;;;;4.50;63.10;;;;;;5181783;28;19931;-83
2022/03/11 01:40:17;;;;;;;;;;;2.00;61.80;;;;;;5180649;28;19925;-84
2022/03/11 01:42:50;;;;;;;;;;;0.80;60.70;;;;;;5185720;28;20341;-83
2022/03/11 01:45:22;;;;;;;;;;;1.90;60.80;;;;;;5176907;28;19928;-83
2022/03/11 01:47:54;;;;;;;;;;;1.90;62.50;;;;;;5184981;28;19932;-82
2022/03/11 01:50:26;;;;;;;;;;;1.90;62.60;;;;;;5180945;28;19932;-84
2022/03/11 01:52:59;;;;;;;;;;;5.40;63.10;;;;;;5178664;28;19929;-83
2022/03/11 01:55:31;;;;;;;;;;;1.80;61.00;;;;;;5180613;28;20305;-83
2022/03/11 01:58:04;;;;;;;;;;;1.80;61.40;;;;;;5181491;28;19925;-84
2022/03/11 02:00:39;;;;;;;;;;;1.80;61.90;;;;;;5193301;28;19928;-83
2022/03/11 02:03:12;;;;;;;;;;;1.80;61.80;;;;;;5182308;28;19926;-83
2022/03/11 02:05:45;;;;;;;;;;;1.70;61.90;;;;;;5177239;28;20316;-83
2022/03/11 02:08:17;;;;;;;;;;;1.70;61.40;;;;;;5178721;28;19932;-83
2022/03/11 02:10:49;;;;;;;;;;;2.70;62.50;;;;;;5180209;28;19929;-83
2022/03/11 02:13:22;;;;;;;;;;;1.60;61.60;;;;;;5181643;28;19960;-83
2022/03/11 02:15:54;;;;;;;;;;;1.70;61.30;;;;;;5142712;28;19921;-83
2022/03/11 02:18:26;;;;;;;;;;;1.80;62.00;;;;;;5170117;28;19932;-84
2022/03/11 02:20:59;;;;;;;;;;;1.60;62.00;;;;;;5178175;28;19940;-83
2022/03/11 02:23:38;;;;;;;;;;;1.60;61.70;;;;;;5175303;28;19924;-83
2022/03/11 02:26:11;;;;;;;;;;;1.60;61.30;;;;;;5178848;28;19932;-83
2022/03/11 02:28:44;;;;;;;;;;;1.40;61.60;;;;;;5173899;28;19943;-83
2022/03/11 02:31:18;;;;;;;;;;;4.60;63.10;;;;;;5165288;28;20960;-83
2022/03/11 02:33:50;;;;;;;;;;;1.50;61.90;;;;;;5169016;28;19921;-83
2022/03/11 02:36:23;;;;;;;;;;;2.70;61.80;;;;;;5179983;28;19934;-83
2022/03/11 02:38:55;;;;;;;;;;;1.50;60.80;;;;;;5164880;28;19933;-83
2022/03/11 02:41:28;;;;;;;;;;;1.30;61.40;;;;;;5182329;28;19951;-83
2022/03/11 02:44:00;;;;;;;;;;;1.30;60.80;;;;;;5170057;28;19952;-82
2022/03/11 02:46:32;;;;;;;;;;;1.30;60.60;;;;;;5180631;28;19932;-83
2022/03/11 02:49:05;;;;;;;;;;;1.10;61.20;;;;;;5163977;28;20435;-83
2022/03/11 02:51:37;;;;;;;;;;;1.30;61.40;;;;;;5168549;28;19925;-82
2022/03/11 02:54:09;;;;;;;;;;;1.20;61.40;;;;;;5180816;28;19936;-83
2022/03/11 02:56:42;;;;;;;;;;;1.20;61.30;;;;;;5181948;28;19921;-83
2022/03/11 02:59:14;;;;;;;;;;;1.30;62.10;;;;;;5175451;28;19925;-82
2022/03/11 03:01:46;;;;;;;;;;;1.30;62.30;;;;;;5177377;28;20789;-83
2022/03/11 03:04:19;;;;;;;;;;;1.30;61.60;;;;;;5165618;28;20344;-83
2022/03/11 03:06:52;;;;;;;;;;;1.20;62.00;;;;;;5147500;28;20408;-83
2022/03/11 03:09:24;;;;;;;;;;;1.20;61.80;;;;;;5193275;28;19921;-82
2022/03/11 03:11:56;;;;;;;;;;;1.10;61.80;;;;;;5177196;28;19999;-83
2022/03/11 03:14:29;;;;;;;;;;;1.10;61.90;;;;;;5160892;28;19925;-83
2022/03/11 03:17:01;;;;;;;;;;;1.10;60.70;;;;;;5161379;28;19925;-83
2022/03/11 03:19:35;;;;;;;;;;;1.20;62.50;;;;;;5176555;28;19925;-83
2022/03/11 03:22:08;;;;;;;;;;;1.00;62.90;;;;;;5176330;28;20549;-83
2022/03/11 03:24:41;;;;;;;;;;;2.00;62.60;;;;;;5182302;28;19929;-82
2022/03/11 03:27:13;;;;;;;;;;;1.00;62.60;;;;;;5173152;28;19925;-83
2022/03/11 03:29:46;;;;;;;;;;;1.00;62.90;;;;;;5153811;28;20565;-82
2022/03/11 03:32:18;;;;;;;;;;;0.90;63.00;;;;;;5195138;28;19936;-84
2022/03/11 03:34:50;;;;;;;;;;;0.90;63.00;;;;;;5159311;28;19929;-82
2022/03/11 03:37:23;;;;;;;;;;;0.80;62.50;;;;;;5181104;28;19928;-83
2022/03/11 03:39:55;;;;;;;;;;;0.80;63.20;;;;;;5174815;28;19929;-82
2022/03/11 03:42:28;;;;;;;;;;;0.80;64.20;;;;;;5181177;28;19936;-82
2022/03/11 03:45:00;;;;;;;;;;;1.10;63.70;;;;;;5175165;28;19925;-83
2022/03/11 03:47:33;;;;;;;;;;;0.70;63.90;;;;;;5178360;28;20775;-83
2022/03/11 03:50:06;;;;;;;;;;;3.50;66.10;;;;;;5173533;28;19921;-84
2022/03/11 03:52:41;;;;;;;;;;;0.70;63.70;;;;;;5184492;28;20085;-82
2022/03/11 03:55:14;;;;;;;;;;;0.70;63.30;;;;;;5181503;28;19929;-82
2022/03/11 03:57:46;;;;;;;;;;;0.60;63.30;;;;;;5178797;28;19932;-82
2022/03/11 04:00:20;;;;;;;;;;;0.70;63.30;;;;;;5181706;28;19926;-82
2022/03/11 04:02:53;;;;;;;;;;;0.60;63.70;;;;;;5173805;28;19921;-82
2022/03/11 04:05:25;;;;;;;;;;;0.60;63.80;;;;;;5164372;28;20524;-83
2022/03/11 04:07:58;;;;;;;;;;;0.60;63.50;;;;;;5180152;28;19925;-82
2022/03/11 04:10:30;;;;;;;;;;;0.60;63.50;;;;;;5173589;28;21028;-82
2022/03/11 04:13:02;;;;;;;;;;;0.60;63.70;;;;;;5156545;28;20537;-83
2022/03/11 04:15:35;;;;;;;;;;;0.00;63.90;;;;;;5143709;28;19921;-82
2022/03/11 04:18:07;;;;;;;;;;;0.50;64.90;;;;;;5166060;28;20273;-83
2022/03/11 04:20:40;;;;;;;;;;;0.50;64.40;;;;;;5179017;28;19928;-82
2022/03/11 04:23:16;;;;;;;;;;;0.50;64.90;;;;;;5170058;28;20023;-82
2022/03/11 04:25:49;;;;;;;;;;;0.50;64.10;;;;;;5149799;28;19929;-82
2022/03/11 04:28:21;;;;;;;;;;;0.50;64.90;;;;;;5185182;28;19933;-81
2022/03/11 04:30:53;;;;;;;;;;;0.30;64.20;;;;;;5173608;28;19936;-82
2022/03/11 04:33:26;;;;;;;;;;;0.40;63.70;;;;;;5163451;28;20004;-83
2022/03/11 04:35:59;;;;;;;;;;;0.50;64.40;;;;;;5180435;28;20223;-82
2022/03/11 04:38:31;;;;;;;;;;;0.50;64.50;;;;;;5161638;28;19925;-82
2022/03/11 04:41:03;;;;;;;;;;;0.50;64.60;;;;;;5167723;28;19932;-83
2022/03/11 04:43:36;;;;;;;;;;;0.50;64.40;;;;;;5153514;28;19929;-81
2022/03/11 04:46:09;;;;;;;;;;;0.50;64.80;;;;;;5161659;28;19929;-83
2022/03/11 04:48:44;;;;;;;;;;;0.40;64.60;;;;;;5139606;28;19925;-82
2022/03/11 04:51:16;;;;;;;;;;;0.40;64.30;;;;;;5175555;28;20619;-82
2022/03/11 04:53:52;;;;;;;;;;;0.40;64.40;;;;;;5173395;28;19926;-83
2022/03/11 04:56:24;;;;;;;;;;;0.40;64.30;;;;;;5170141;28;19921;-82
2022/03/11 04:58:57;;;;;;;;;;;0.30;65.20;;;;;;5182859;28;19925;-83
2022/03/11 05:01:29;;;;;;;;;;;0.40;65.00;;;;;;5174161;28;19936;-83
2022/03/11 05:04:01;;;;;;;;;;;0.10;65.10;;;;;;5164233;28;19925;-82
2022/03/11 05:06:34;;;;;;;;;;;0.30;65.10;;;;;;5168536;28;20534;-83
2022/03/11 05:09:07;;;;;;;;;;;0.30;64.90;;;;;;5174327;28;19929;-83
2022/03/11 05:11:40;;;;;;;;;;;1.60;67.00;;;;;;5175900;28;19929;-82
2022/03/11 05:14:12;;;;;;;;;;;0.30;65.50;;;;;;5179376;28;19997;-82
2022/03/11 05:16:45;;;;;;;;;;;0.20;65.20;;;;;;5171816;28;19932;-82
2022/03/11 05:19:17;;;;;;;;;;;0.20;65.50;;;;;;5161975;28;19925;-83
2022/03/11 05:21:51;;;;;;;;;;;0.10;65.80;;;;;;5174043;28;20015;-82
2022/03/11 05:24:23;;;;;;;;;;;0.10;66.30;;;;;;5157805;28;19925;-84
2022/03/11 05:26:55;;;;;;;;;;;0.10;66.90;;;;;;5178011;28;25570;-84
2022/03/11 05:29:28;;;;;;;;;;;0.10;66.10;;;;;;5173735;28;19933;-82
2022/03/11 05:32:01;;;;;;;;;;;0.10;66.40;;;;;;5168495;28;19932;-83
2022/03/11 05:34:34;;;;;;;;;;;0.10;67.20;;;;;;5156051;28;19929;-84
2022/03/11 05:37:07;;;;;;;;;;;0.10;67.00;;;;;;5177349;28;19929;-83
2022/03/11 05:39:39;;;;;;;;;;;0.10;67.50;;;;;;5162214;28;19928;-82
2022/03/11 05:42:11;;;;;;;;;;;-1.20;65.90;;;;;;5174463;28;19925;-84
2022/03/11 05:44:44;;;;;;;;;;;-0.10;67.10;;;;;;5172744;28;19925;-83
2022/03/11 05:47:16;;;;;;;;;;;0.00;67.10;;;;;;5175011;28;20016;-85
2022/03/11 05:49:49;;;;;;;;;;;0.00;67.30;;;;;;5177808;28;19925;-83
2022/03/11 05:52:22;;;;;;;;;;;-0.20;66.90;;;;;;5177693;28;19928;-82
2022/03/11 05:54:54;;;;;;;;;;;-0.20;67.30;;;;;;5176810;28;20363;-82
2022/03/11 05:57:27;;;;;;;;;;;-0.30;68.10;;;;;;5177910;28;20044;-82
2022/03/11 05:59:59;;;;;;;;;;;-0.40;68.60;;;;;;5140625;28;19925;-82
2022/03/11 06:02:32;;;;;;;;;;;-0.40;69.40;;;;;;5155995;28;19940;-82
2022/03/11 06:05:04;;;;;;;;;;;-0.50;68.80;;;;;;5174151;28;19940;-82
2022/03/11 06:07:37;;;;;;;;;;;-0.50;68.80;;;;;;5155347;28;19936;-84
2022/03/11 06:10:10;;;;;;;;;;;-0.50;69.20;;;;;;5149909;28;19929;-83
2022/03/11 06:12:42;;;;;;;;;;;-0.60;69.40;;;;;;5147752;28;19921;-83
2022/03/11 06:15:15;;;;;;;;;;;-0.50;70.40;;;;;;5149774;28;19929;-83
2022/03/11 06:17:47;;;;;;;;;;;-0.60;69.90;;;;;;5170411;28;20644;-83
2022/03/11 06:20:22;;;;;;;;;;;-0.30;69.80;;;;;;5153772;28;19932;-83
2022/03/11 06:23:01;;;;;;;;;;;-0.50;69.80;;;;;;5147918;28;19921;-82
2022/03/11 06:25:46;;;;;;;;;;;;;;;;;;5132757;28;20340;-83
2022/03/11 06:28:19;;;;;;;;;;;-0.40;69.90;;;;;;5142089;28;19929;-83
2022/03/11 06:30:54;;;;;;;;;;;-0.40;69.50;;;;;;5125800;28;19926;-82
2022/03/11 06:33:28;;;;;;;;;;;-0.30;69.30;;;;;;5144546;28;19929;-83
2022/03/11 06:36:04;;;;;;;;;;;-0.30;69.40;;;;;;5172980;28;19929;-82
2022/03/11 06:38:36;;;;;;;;;;;-0.10;69.30;;;;;;5170485;28;19925;-82
2022/03/11 06:41:15;;;;;;;;;;;-0.20;68.90;;;;;;5161083;28;20907;-82
2022/03/11 06:43:48;;;;;;;;;;;0.00;69.30;;;;;;5178264;28;20321;-82
2022/03/11 06:46:24;;;;;;;;;;;0.00;69.00;;;;;;5158611;28;20432;-83
2022/03/11 06:49:00;;;;;;;;;;;0.00;69.30;;;;;;5193962;28;25431;-82
2022/03/11 06:51:39;;;;;;;;;;;1.00;69.70;;;;;;5138819;28;19925;-82
2022/03/11 06:54:17;;;;;;;;;;;0.10;68.90;;;;;;5171992;28;19921;-81
2022/03/11 06:56:52;;;;;;;;;;;0.30;69.30;;;;;;5166411;28;19928;-82
2022/03/11 06:59:27;;;;;;;;;;;0.30;69.10;;;;;;5146199;28;19925;-82
2022/03/11 07:02:03;;;;;;;;;;;0.40;68.40;;;;;;5176870;28;19943;-83
2022/03/11 07:04:36;;;;;;;;;;;0.40;68.50;;;;;;5171887;28;20582;-82
2022/03/11 07:07:19;;;;;;;;;;;0.50;68.90;;;;;;5154429;28;19921;-82
2022/03/11 07:09:54;;;;;;;;;;;0.50;69.30;;;;;;5161332;28;19936;-81
2022/03/11 07:12:33;;;;;;;;;;;0.50;68.90;;;;;;5143153;28;19940;-82
2022/03/11 07:15:09;;;;;;;;;;;0.60;68.60;;;;;;5171887;28;19921;-82
2022/03/11 07:17:52;;;;;;;;;;;0.70;68.50;;;;;;5166703;28;19952;-82
2022/03/11 07:20:26;;;;;;;;;;;0.70;68.30;;;;;;5173117;28;19925;-82
2022/03/11 07:23:19;;;;;;;;;;;0.80;68.70;;;;;;5166621;28;19925;-81
2022/03/11 07:25:51;;;;;;;;;;;0.70;67.70;;;;;;5167276;28;19925;-82
2022/03/11 07:28:35;;;;;;;;;;;0.70;68.30;;;;;;5159719;28;19929;-81
2022/03/11 07:31:07;;;;;;;;;;;0.80;68.00;;;;;;5183629;28;19931;-82
2022/03/11 07:33:39;;;;;;;;;;;0.50;67.80;;;;;;5186446;28;19932;-82
2022/03/11 07:36:12;;;;;;;;;;;1.70;69.00;;;;;;5188648;28;20499;-82
2022/03/11 07:38:44;;;;;;;;;;;0.90;68.20;;;;;;5186880;28;19925;-81
2022/03/11 07:41:17;;;;;;;;;;;0.90;68.00;;;;;;5186826;28;20484;-81
2022/03/11 07:43:49;;;;;;;;;;;1.00;68.20;;;;;;5188838;28;20387;-82
2022/03/11 07:46:42;;;;;;;;;;;1.00;67.00;;;;;;5184810;28;19926;-82
2022/03/11 07:49:14;;;;;;;;;;;1.00;68.20;;;;;;5187315;28;19929;-81
2022/03/11 07:51:47;;;;;;;;;;;1.10;68.10;;;;;;5186460;28;20388;-81
2022/03/11 07:54:19;;;;;;;;;;;1.20;68.20;;;;;;5166814;28;19925;-82
2022/03/11 07:56:52;;;;;;;;;;;1.30;68.00;;;;;;5168276;28;20015;-82
2022/03/11 07:59:28;;;;;;;;;;;1.30;67.40;;;;;;5169060;28;19932;-82
2022/03/11 08:02:01;;;;;;;;;;;1.40;67.30;;;;;;5179538;28;19930;-81
2022/03/11 08:04:33;;;;;;;;;;;1.50;67.70;;;;;;5185647;28;19929;-82
2022/03/11 08:07:11;;;;;;;;;;;1.50;66.90;;;;;;5184214;28;19928;-81
2022/03/11 08:09:43;;;;;;;;;;;1.60;67.80;;;;;;5170739;28;19921;-81
2022/03/11 08:12:15;;;;;;;;;;;1.60;67.70;;;;;;5191512;28;20317;-82
2022/03/11 08:14:49;;;;;;;;;;;1.70;67.20;;;;;;5190676;28;20413;-82
2022/03/11 08:17:23;;;;;;;;;;;1.80;67.40;;;;;;5192348;28;19932;-82
2022/03/11 08:19:58;;;;;;;;;;;1.80;66.40;;;;;;5189428;28;19928;-81
2022/03/11 08:22:30;;;;;;;;;;;1.90;67.00;;;;;;5191167;28;19921;-81
2022/03/11 08:25:05;;;;;;;;;;;1.60;66.20;;;;;;5188066;28;19932;-81
2022/03/11 08:27:41;;;;;;;;;;;2.00;66.30;;;;;;5173348;28;19929;-81
2022/03/11 08:30:13;;;;;;;;;;;2.00;66.90;;;;;;5177185;28;20575;-82
2022/03/11 08:32:46;;;;;;;;;;;2.20;66.30;;;;;;5186291;28;19925;-81
2022/03/11 08:35:21;;;;;;;;;;;2.20;66.20;;;;;;5178274;28;19936;-82
2022/03/11 08:37:55;;;;;;;;;;;2.20;66.20;;;;;;5187246;28;19928;-81
2022/03/11 08:40:27;;;;;;;;;;;2.30;65.70;;;;;;5192628;28;19922;-81
2022/03/11 08:43:03;;;;;;;;;;;2.50;67.00;;;;;;5188676;28;19952;-81
2022/03/11 08:45:36;;;;;;;;;;;2.50;65.20;;;;;;5189381;28;19936;-82
2022/03/11 08:48:09;;;;;;;;;;;2.50;65.70;;;;;;5189512;28;19933;-81
2022/03/11 08:50:43;;;;;;;;;;;2.50;65.60;;;;;;5171638;28;19921;-80
2022/03/11 08:53:18;;;;;;;;;;;2.60;65.80;;;;;;5155711;28;19921;-81
2022/03/11 08:55:50;;;;;;;;;;;2.70;64.30;;;;;;5191604;28;20206;-83
2022/03/11 08:58:23;;;;;;;;;;;2.80;65.30;;;;;;5162883;28;19921;-82
2022/03/11 09:00:55;;;;;;;;;;;2.90;64.50;;;;;;5162252;28;19925;-82
2022/03/11 09:03:29;;;;;;;;;;;3.20;65.70;;;;;;5172331;28;19921;-81
2022/03/11 09:06:02;;;;;;;;;;;3.10;64.80;;;;;;5188071;28;19929;-81
2022/03/11 09:08:34;;;;;;;;;;;3.20;65.50;;;;;;5166850;28;19921;-80
2022/03/11 09:11:08;;;;;;;;;;;3.40;64.90;;;;;;5170400;28;19925;-81
2022/03/11 09:13:43;;;;;;;;;;;3.40;63.80;;;;;;5159777;28;19933;-81
2022/03/11 09:16:16;;;;;;;;;;;3.40;65.10;;;;;;5186287;28;19925;-81
2022/03/11 09:18:48;;;;;;;;;;;3.60;63.70;;;;;;5183845;28;19925;-82
2022/03/11 09:21:21;;;;;;;;;;;3.60;63.20;;;;;;5182983;28;20410;-81
2022/03/11 09:23:53;;;;;;;;;;;3.60;63.40;;;;;;5164201;28;19921;-81
2022/03/11 09:26:25;;;;;;;;;;;6.60;65.70;;;;;;5155741;28;19921;-80
2022/03/11 09:29:18;;;;;;;;;;;3.80;64.00;;;;;;5190749;28;20403;-80
2022/03/11 09:31:50;;;;;;;;;;;3.70;63.10;;;;;;5169984;28;19940;-80
2022/03/11 09:34:23;;;;;;;;;;;3.80;63.30;;;;;;5165625;28;20392;-81
2022/03/11 09:36:56;;;;;;;;;;;3.90;62.70;;;;;;5177586;28;19929;-81
2022/03/11 09:39:28;;;;;;;;;;;4.00;62.50;;;;;;5161768;28;20668;-81
2022/03/11 09:42:01;;;;;;;;;;;4.10;62.70;;;;;;5182896;28;19941;-80
2022/03/11 09:44:34;;;;;;;;;;;4.20;62.60;;;;;;5170932;28;19925;-80
2022/03/11 09:47:07;;;;;;;;;;;4.30;61.80;;;;;;5189303;28;19928;-79
2022/03/11 09:49:39;;;;;;;;;;;4.40;62.70;;;;;;5178062;28;19925;-81
2022/03/11 09:52:12;;;;;;;;;;;5.70;63.10;;;;;;5182650;28;19929;-81
2022/03/11 09:54:45;;;;;;;;;;;4.50;61.30;;;;;;5175863;28;19932;-81
2022/03/11 09:57:19;;;;;;;;;;;4.40;61.10;;;;;;5182035;28;19935;-79
2022/03/11 09:59:51;;;;;;;;;;;4.20;61.40;;;;;;5184698;28;20340;-81
2022/03/11 10:02:28;;;;;;;;;;;7.80;62.90;;;;;;5188206;28;19929;-80
2022/03/11 10:05:00;;;;;;;;;;;4.80;60.30;;;;;;5192768;28;19928;-81
2022/03/11 10:08:00;;;;;;;;;;;6.90;62.00;;;;;;5167275;28;19932;-81
2022/03/11 10:10:33;;;;;;;;;;;4.50;60.50;;;;;;5185131;28;19932;-81
2022/03/11 10:13:12;;;;;;;;;;;4.90;60.00;;;;;;5187906;28;19940;-81
2022/03/11 10:15:44;;;;;;;;;;;4.90;59.60;;;;;;5189784;28;19932;-82
2022/03/11 10:18:28;;;;;;;;;;;6.50;61.80;;;;;;5187289;28;19929;-81
2022/03/11 10:21:09;;;;;;;;;;;7.50;61.30;;;;;;5183570;28;20349;-81
2022/03/11 10:23:50;;;;;;;;;;;5.20;59.80;;;;;;5178452;28;19928;-81
2022/03/11 10:26:30;;;;;;;;;;;5.20;60.50;;;;;;5183393;28;20481;-81
2022/03/11 10:29:05;;;;;;;;;;;5.40;60.00;;;;;;5153854;28;19933;-83
2022/03/11 10:31:40;;;;;;;;;;;5.60;60.20;;;;;;5183347;28;19943;-82
2022/03/11 10:34:21;;;;;;;;;;;5.60;59.60;;;;;;5157733;28;20284;-81
2022/03/11 10:36:58;;;;;;;;;;;5.60;58.70;;;;;;5182357;28;19936;-83
2022/03/11 10:39:41;;;;;;;;;;;3.80;58.60;;;;;;5182992;28;19928;-82
2022/03/11 10:42:24;;;;;;;;;;;5.60;58.30;;;;;;5168026;28;19982;-81
2022/03/11 10:45:00;;;;;;;;;;;5.90;58.20;;;;;;5197805;28;19939;-82
2022/03/11 10:47:34;;;;;;;;;;;6.00;57.50;;;;;;5164326;28;20167;-81
2022/03/11 10:50:07;;;;;;;;;;;6.10;58.30;;;;;;5186537;28;19933;-82
2022/03/11 10:52:41;;;;;;;;;;;6.20;57.50;;;;;;5187961;28;19944;-81
2022/03/11 10:55:26;;;;;;;;;;;6.10;57.40;;;;;;5167756;28;20124;-82
2022/03/11 10:57:59;;;;;;;;;;;6.20;57.90;;;;;;5181238;28;19921;-81
2022/03/11 11:00:36;;;;;;;;;;;6.50;56.90;;;;;;5153634;28;19928;-83
2022/03/11 11:03:10;;;;;;;;;;;6.40;57.20;;;;;;5181139;28;19925;-81
2022/03/11 11:05:45;;;;;;;;;;;7.00;58.40;;;;;;5187056;28;19924;-82
2022/03/11 11:08:17;;;;;;;;;;;6.40;56.90;;;;;;5187022;28;19929;-82
2022/03/11 11:10:50;;;;;;;;;;;6.40;56.30;;;;;;5149874;28;19921;-82
2022/03/11 11:13:22;;;;;;;;;;;6.40;56.00;;;;;;5180917;28;19929;-80
2022/03/11 11:15:59;;;;;;;;;;;6.60;57.10;;;;;;5177953;28;20373;-82
2022/03/11 11:18:33;;;;;;;;;;;6.70;56.40;;;;;;5150962;28;19939;-82
2022/03/11 11:21:07;;;;;;;;;;;6.80;57.30;;;;;;5187016;28;19928;-81
2022/03/11 11:23:39;;;;;;;;;;;6.80;56.60;;;;;;5165745;28;19932;-82
2022/03/11 11:26:12;;;;;;;;;;;7.00;57.20;;;;;;5185608;28;19921;-81
2022/03/11 11:28:45;;;;;;;;;;;6.90;55.70;;;;;;5185553;28;19921;-83
2022/03/11 11:31:18;;;;;;;;;;;7.00;55.10;;;;;;5182436;28;19921;-82
2022/03/11 11:33:51;;;;;;;;;;;7.10;56.50;;;;;;5186140;28;19925;-83
2022/03/11 11:36:37;;;;;;;;;;;7.20;56.50;;;;;;5182575;28;21212;-82
2022/03/11 11:39:11;;;;;;;;;;;7.30;55.70;;;;;;5171429;28;19929;-81
2022/03/11 11:41:50;;;;;;;;;;;7.40;55.90;;;;;;5163946;28;19929;-81
2022/03/11 11:44:30;;;;;;;;;;;7.50;55.30;;;;;;5164487;28;19932;-81
2022/03/11 11:47:11;;;;;;;;;;;7.40;55.30;;;;;;5150944;28;19926;-82
2022/03/11 11:49:52;;;;;;;;;;;7.50;56.00;;;;;;5186059;28;19932;-81
2022/03/11 11:52:26;;;;;;;;;;;7.60;55.60;;;;;;5186553;28;19921;-83
2022/03/11 11:55:11;;;;;;;;;;;7.60;54.80;;;;;;5178824;28;19925;-81
2022/03/11 11:57:46;;;;;;;;;;;7.80;55.00;;;;;;5191176;28;20396;-82
2022/03/11 12:00:32;;;;;;;;;;;7.80;53.20;;;;;;5168598;28;19928;-82
2022/03/11 12:03:06;;;;;;;;;;;7.90;54.10;;;;;;5188817;28;19932;-80
2022/03/11 12:05:40;;;;;;;;;;;7.90;53.40;;;;;;5179030;28;19941;-82
2022/03/11 12:08:31;;;;;;;;;;;7.90;53.10;;;;;;5190519;28;20452;-82
2022/03/11 12:11:05;;;;;;;;;;;8.00;53.10;;;;;;5189788;28;20483;-80
2022/03/11 12:13:38;;;;;;;;;;;8.00;53.60;;;;;;5195510;28;19925;-81
2022/03/11 12:16:21;;;;;;;;;;;8.00;54.00;;;;;;5177289;28;19928;-81
2022/03/11 12:18:54;;;;;;;;;;;8.00;54.20;;;;;;5188304;28;19929;-82
2022/03/11 12:21:39;;;;;;;;;;;8.00;53.20;;;;;;5193873;28;19936;-81
2022/03/11 12:24:31;;;;;;;;;;;8.00;54.20;;;;;;5183835;28;19922;-82
2022/03/11 12:27:04;;;;;;;;;;;8.10;54.20;;;;;;5168603;28;19937;-82
2022/03/11 12:29:37;;;;;;;;;;;8.20;53.40;;;;;;5171885;28;19921;-82
2022/03/11 12:32:09;;;;;;;;;;;8.30;53.60;;;;;;5193970;28;21087;-81
2022/03/11 12:34:47;;;;;;;;;;;8.30;53.80;;;;;;5165246;28;19928;-81
2022/03/11 12:37:19;;;;;;;;;;;8.10;52.90;;;;;;5159497;28;19932;-81
2022/03/11 12:39:54;;;;;;;;;;;8.40;54.00;;;;;;5174060;28;19932;-80
2022/03/11 12:42:39;;;;;;;;;;;8.40;53.20;;;;;;5134569;28;19925;-81
2022/03/11 12:45:13;;;;;;;;;;;8.40;54.10;;;;;;5141175;28;19928;-81
2022/03/11 12:47:46;;;;;;;;;;;8.50;53.80;;;;;;5172216;28;19940;-81
2022/03/11 12:50:20;;;;;;;;;;;8.60;55.60;;;;;;5169882;28;19952;-81
2022/03/11 12:52:57;;;;;;;;;;;8.60;53.10;;;;;;5169384;28;19929;-80
2022/03/11 12:55:31;;;;;;;;;;;8.70;52.50;;;;;;5183718;28;19932;-81
2022/03/11 12:58:04;;;;;;;;;;;8.60;53.20;;;;;;5179392;28;19952;-79
2022/03/11 13:00:39;;;;;;;;;;;8.70;52.80;;;;;;5150323;28;21076;-80
2022/03/11 13:03:12;;;;;;;;;;;8.80;52.50;;;;;;5178354;28;19925;-81
2022/03/11 13:05:51;;;;;;;;;;;8.80;53.00;;;;;;5165106;28;19925;-81
2022/03/11 13:08:23;;;;;;;;;;;8.90;52.50;;;;;;5181845;28;19929;-81
2022/03/11 13:10:56;;;;;;;;;;;9.00;52.60;;;;;;5172022;28;19943;-81
2022/03/11 13:13:29;;;;;;;;;;;9.00;52.50;;;;;;5176285;28;20518;-81
2022/03/11 13:16:02;;;;;;;;;;;9.00;51.30;;;;;;5181195;28;19936;-81
2022/03/11 13:18:37;;;;;;;;;;;9.00;52.00;;;;;;5171632;28;19940;-80
2022/03/11 13:21:13;;;;;;;;;;;9.00;52.00;;;;;;5167783;28;20834;-79
2022/03/11 13:23:49;;;;;;;;;;;9.00;51.60;;;;;;5182954;28;19929;-80
2022/03/11 13:26:22;;;;;;;;;;;9.00;52.60;;;;;;5160383;28;19932;-81
2022/03/11 13:28:56;;;;;;;;;;;9.10;52.20;;;;;;5164173;28;19936;-80
2022/03/11 13:31:31;;;;;;;;;;;9.10;52.10;;;;;;5161901;28;20102;-81
2022/03/11 13:34:07;;;;;;;;;;;9.10;51.80;;;;;;5179714;28;19929;-81
2022/03/11 13:36:43;;;;;;;;;;;9.20;51.50;;;;;;5168746;28;19929;-81
2022/03/11 13:39:17;;;;;;;;;;;9.20;51.40;;;;;;5168386;28;19925;-80
2022/03/11 13:41:52;;;;;;;;;;;9.20;51.70;;;;;;5170647;28;19925;-81
2022/03/11 13:44:29;;;;;;;;;;;9.30;51.40;;;;;;5144680;28;19926;-80
2022/03/11 13:47:05;;;;;;;;;;;9.30;51.40;;;;;;5169477;28;19940;-81
2022/03/11 13:49:47;;;;;;;;;;;9.30;51.90;;;;;;5170863;28;19925;-81
2022/03/11 13:52:21;;;;;;;;;;;9.40;50.40;;;;;;5127504;28;19925;-82
2022/03/11 13:55:04;;;;;;;;;;;9.40;51.60;;;;;;5170505;28;19929;-81
2022/03/11 13:57:42;;;;;;;;;;;9.50;52.30;;;;;;5173128;28;19948;-82
2022/03/11 14:00:14;;;;;;;;;;;9.50;51.90;;;;;;5144921;28;19936;-80
2022/03/11 14:02:49;;;;;;;;;;;9.50;52.90;;;;;;5168947;28;19921;-82
2022/03/11 14:05:26;;;;;;;;;;;9.50;51.50;;;;;;5174922;28;19932;-81
2022/03/11 14:08:03;;;;;;;;;;;9.50;52.60;;;;;;5177150;28;19929;-80
2022/03/11 14:10:37;;;;;;;;;;;9.50;52.10;;;;;;5155410;28;20384;-81
2022/03/11 14:13:11;;;;;;;;;;;9.50;52.00;;;;;;5137391;28;20486;-79
2022/03/11 14:15:46;;;;;;;;;;;9.60;52.20;;;;;;5167888;28;19925;-82
2022/03/11 14:18:19;;;;;;;;;;;9.60;53.60;;;;;;5163230;28;19944;-81
2022/03/11 14:21:10;;;;;;;;;;;10.10;53.00;;;;;;5162787;28;19929;-80
2022/03/11 14:23:42;;;;;;;;;;;9.60;52.40;;;;;;5162960;28;19932;-81
2022/03/11 14:26:15;;;;;;;;;;;9.60;51.50;;;;;;5171952;28;20317;-82
2022/03/11 14:28:47;;;;;;;;;;;9.60;50.90;;;;;;5146295;28;20443;-82
2022/03/11 14:31:20;;;;;;;;;;;9.50;50.90;;;;;;5163758;28;19925;-80
2022/03/11 14:33:52;;;;;;;;;;;9.50;52.90;;;;;;5147273;28;20334;-81
2022/03/11 14:36:26;;;;;;;;;;;9.60;52.70;;;;;;5163126;28;19929;-81
2022/03/11 14:38:59;;;;;;;;;;;9.60;52.50;;;;;;5169191;28;19933;-81
2022/03/11 14:41:32;;;;;;;;;;;9.60;53.20;;;;;;5147437;28;19933;-81
2022/03/11 14:44:05;;;;;;;;;;;9.70;52.00;;;;;;5165962;28;19937;-81
2022/03/11 14:46:37;;;;;;;;;;;9.80;52.30;;;;;;5159173;28;20452;-81
2022/03/11 14:49:09;;;;;;;;;;;9.80;52.40;;;;;;5145314;28;19936;-81
2022/03/11 14:51:42;;;;;;;;;;;9.90;52.70;;;;;;5146898;28;20646;-80
2022/03/11 14:54:15;;;;;;;;;;;10.00;52.10;;;;;;5158681;28;19932;-82
2022/03/11 14:56:49;;;;;;;;;;;9.90;51.60;;;;;;5164994;28;19944;-81
2022/03/11 14:59:25;;;;;;;;;;;9.90;51.80;;;;;;5151792;28;19929;-81
2022/03/11 15:01:57;;;;;;;;;;;9.90;53.40;;;;;;5160413;28;19957;-81
2022/03/11 15:04:30;;;;;;;;;;;9.80;50.70;;;;;;5140807;28;19936;-81
2022/03/11 15:07:02;;;;;;;;;;;9.70;50.90;;;;;;5157500;28;19937;-81
2022/03/11 15:09:35;;;;;;;;;;;9.70;52.50;;;;;;5152328;28;20313;-81